createdAt,value
2018-12-21T00:00:16.546Z,8.76
2018-12-21T00:01:16.529Z,8.76
2018-12-21T00:02:16.512Z,8.68
2018-12-21T00:03:16.534Z,8.58
2018-12-21T00:04:16.490Z,8.65
2018-12-21T00:05:16.480Z,8.71
2018-12-21T00:06:16.515Z,8.57
2018-12-21T00:07:16.460Z,8.57
2018-12-21T00:08:16.474Z,8.62
2018-12-21T00:09:16.435Z,8.63
2018-12-21T00:10:16.420Z,8.66
2018-12-21T00:11:16.417Z,8.68
2018-12-21T00:12:16.402Z,8.68
2018-12-21T00:13:16.460Z,8.66
2018-12-21T00:14:16.384Z,8.62
2018-12-21T00:15:16.374Z,8.63
2018-12-21T00:16:16.357Z,8.75
2018-12-21T00:17:16.349Z,8.76
2018-12-21T00:18:16.362Z,8.66
2018-12-21T00:19:16.326Z,8.69
2018-12-21T00:20:16.322Z,8.66
2018-12-21T00:21:21.789Z,8.71
2018-12-21T00:22:17.286Z,8.72
2018-12-21T00:23:16.330Z,8.72
2018-12-21T00:24:16.274Z,8.76
2018-12-21T00:25:16.256Z,8.76
2018-12-21T00:26:16.240Z,8.66
2018-12-21T00:27:16.243Z,8.84
2018-12-21T00:28:16.249Z,8.75
2018-12-21T00:29:16.210Z,8.71
2018-12-21T00:30:16.206Z,8.71
2018-12-21T00:31:17.901Z,8.72
2018-12-21T00:32:16.181Z,8.71
2018-12-21T00:33:16.196Z,8.65
2018-12-21T00:34:16.173Z,8.69
2018-12-21T00:35:16.150Z,8.72
2018-12-21T00:36:16.178Z,8.73
2018-12-21T00:37:16.117Z,8.78
2018-12-21T00:38:16.139Z,8.83
2018-12-21T00:39:16.097Z,8.78
2018-12-21T00:40:16.086Z,8.79
2018-12-21T00:41:16.075Z,8.86
2018-12-21T00:42:16.110Z,8.84
2018-12-21T00:43:16.092Z,8.84
2018-12-21T00:44:16.043Z,8.78
2018-12-21T00:45:16.027Z,8.71
2018-12-21T00:46:16.070Z,8.75
2018-12-21T00:47:16.019Z,8.79
2018-12-21T00:48:16.024Z,8.79
2018-12-21T00:49:16.015Z,8.66
2018-12-21T00:50:15.973Z,8.76
2018-12-21T00:51:15.966Z,8.79
2018-12-21T00:52:15.957Z,8.76
2018-12-21T00:53:15.971Z,8.73
2018-12-21T00:54:15.935Z,8.75
2018-12-21T00:55:15.921Z,8.81
2018-12-21T00:56:15.916Z,8.87
2018-12-21T00:57:15.895Z,8.96
2018-12-21T00:58:15.945Z,8.78
2018-12-21T00:59:15.880Z,8.86
2018-12-21T01:00:15.863Z,8.87
2018-12-21T01:01:15.855Z,8.84
2018-12-21T01:02:15.841Z,8.90
2018-12-21T01:03:15.852Z,8.86
2018-12-21T01:04:15.818Z,8.91
2018-12-21T01:05:15.804Z,8.97
2018-12-21T01:06:15.828Z,8.93
2018-12-21T01:07:15.784Z,9.01
2018-12-21T01:08:15.771Z,8.97
2018-12-21T01:09:15.786Z,8.99
2018-12-21T01:10:15.746Z,8.96
2018-12-21T01:11:15.739Z,9.05
2018-12-21T01:12:15.756Z,9.02
2018-12-21T01:13:15.717Z,9.05
2018-12-21T01:14:15.736Z,8.97
2018-12-21T01:15:15.701Z,8.93
2018-12-21T01:16:15.687Z,8.90
2018-12-21T01:17:15.684Z,8.93
2018-12-21T01:18:15.691Z,9.04
2018-12-21T01:19:15.679Z,9.12
2018-12-21T01:20:15.635Z,9.09
2018-12-21T01:21:15.625Z,9.05
2018-12-21T01:22:15.616Z,9.05
2018-12-21T01:23:15.608Z,9.13
2018-12-21T01:24:15.615Z,8.94
2018-12-21T01:25:15.588Z,8.99
2018-12-21T01:26:15.572Z,9.05
2018-12-21T01:27:15.561Z,9.01
2018-12-21T01:28:15.588Z,9.10
2018-12-21T01:29:15.569Z,9.15
2018-12-21T01:30:15.530Z,9.01
2018-12-21T01:31:15.514Z,8.99
2018-12-21T01:32:15.505Z,8.94
2018-12-21T01:33:15.493Z,9.05
2018-12-21T01:34:15.504Z,9.05
2018-12-21T01:35:15.472Z,9.06
2018-12-21T01:36:15.495Z,9.02
2018-12-21T01:37:15.446Z,9.02
2018-12-21T01:38:15.443Z,9.04
2018-12-21T01:39:15.445Z,9.06
2018-12-21T01:40:15.411Z,9.18
2018-12-21T01:41:15.510Z,9.25
2018-12-21T01:42:15.393Z,9.15
2018-12-21T01:43:15.414Z,9.04
2018-12-21T01:44:15.396Z,8.99
2018-12-21T01:45:15.359Z,8.96
2018-12-21T01:46:15.344Z,8.99
2018-12-21T01:47:15.333Z,8.96
2018-12-21T01:48:15.321Z,8.91
2018-12-21T01:49:15.373Z,8.87
2018-12-21T01:50:15.302Z,8.86
2018-12-21T01:51:15.291Z,8.96
2018-12-21T01:52:15.278Z,9.02
2018-12-21T01:53:15.263Z,8.93
2018-12-21T01:54:15.285Z,8.99
2018-12-21T01:55:15.280Z,8.97
2018-12-21T01:56:15.239Z,8.99
2018-12-21T01:57:15.219Z,9.06
2018-12-21T01:58:15.215Z,9.06
2018-12-21T01:59:15.229Z,9.06
2018-12-21T02:00:15.196Z,9.01
2018-12-21T02:01:15.183Z,9.04
2018-12-21T02:02:15.192Z,8.93
2018-12-21T02:03:15.163Z,8.93
2018-12-21T02:04:15.163Z,8.91
2018-12-21T02:05:15.163Z,8.94
2018-12-21T02:06:15.117Z,9.06
2018-12-21T02:07:15.115Z,9.10
2018-12-21T02:08:15.099Z,9.06
2018-12-21T02:09:15.123Z,9.02
2018-12-21T02:10:15.078Z,9.09
2018-12-21T02:11:15.073Z,9.04
2018-12-21T02:12:15.061Z,9.12
2018-12-21T02:13:15.039Z,9.05
2018-12-21T02:14:15.093Z,9.06
2018-12-21T02:15:15.018Z,8.91
2018-12-21T02:16:15.011Z,8.91
2018-12-21T02:17:15.000Z,8.91
2018-12-21T02:18:14.991Z,8.91
2018-12-21T02:19:15.000Z,9.02
2018-12-21T02:20:15.013Z,9.05
2018-12-21T02:21:14.954Z,9.06
2018-12-21T02:22:14.947Z,9.12
2018-12-21T02:23:14.928Z,9.09
2018-12-21T02:24:14.949Z,9.04
2018-12-21T02:25:14.912Z,9.01
2018-12-21T02:26:14.895Z,8.93
2018-12-21T02:27:14.893Z,8.97
2018-12-21T02:28:14.872Z,8.86
2018-12-21T02:29:14.947Z,8.84
2018-12-21T02:30:14.855Z,8.93
2018-12-21T02:31:14.845Z,9.01
2018-12-21T02:32:14.827Z,9.02
2018-12-21T02:33:14.823Z,9.05
2018-12-21T02:34:14.825Z,8.99
2018-12-21T02:35:14.797Z,9.04
2018-12-21T02:36:14.798Z,9.05
2018-12-21T02:37:14.770Z,9.04
2018-12-21T02:38:14.771Z,9.04
2018-12-21T02:39:14.768Z,9.13
2018-12-21T02:40:14.777Z,9.25
2018-12-21T02:41:14.729Z,9.23
2018-12-21T02:42:14.717Z,9.16
2018-12-21T02:43:14.702Z,9.27
2018-12-21T02:44:14.716Z,9.24
2018-12-21T02:45:14.727Z,9.27
2018-12-21T02:46:14.675Z,9.06
2018-12-21T02:47:14.661Z,9.12
2018-12-21T02:48:14.649Z,9.20
2018-12-21T02:49:14.662Z,9.21
2018-12-21T02:50:14.625Z,9.13
2018-12-21T02:51:14.613Z,9.12
2018-12-21T02:52:14.641Z,9.04
2018-12-21T02:53:14.599Z,9.16
2018-12-21T02:54:14.611Z,8.99
2018-12-21T02:55:14.571Z,8.96
2018-12-21T02:56:14.558Z,8.99
2018-12-21T02:57:14.557Z,9.05
2018-12-21T02:58:14.538Z,9.12
2018-12-21T02:59:14.561Z,9.04
2018-12-21T03:00:14.595Z,9.04
2018-12-21T03:01:14.543Z,9.04
2018-12-21T03:02:14.490Z,9.01
2018-12-21T03:03:14.480Z,8.97
2018-12-21T03:04:14.472Z,9.02
2018-12-21T03:05:14.487Z,8.96
2018-12-21T03:06:14.447Z,8.97
2018-12-21T03:07:14.436Z,8.86
2018-12-21T03:08:14.427Z,8.88
2018-12-21T03:09:14.413Z,8.84
2018-12-21T03:10:14.422Z,8.99
2018-12-21T03:11:14.411Z,8.88
2018-12-21T03:12:14.380Z,8.91
2018-12-21T03:13:14.364Z,9.12
2018-12-21T03:14:14.357Z,9.25
2018-12-21T03:15:14.371Z,9.21
2018-12-21T03:16:14.340Z,9.25
2018-12-21T03:17:14.396Z,9.27
2018-12-21T03:18:14.377Z,9.20
2018-12-21T03:19:14.299Z,9.13
2018-12-21T03:20:14.314Z,9.13
2018-12-21T03:21:14.273Z,8.93
2018-12-21T03:22:15.197Z,8.87
2018-12-21T03:23:14.284Z,8.93
2018-12-21T03:24:14.242Z,8.83
2018-12-21T03:25:14.263Z,8.79
2018-12-21T03:26:14.221Z,8.75
2018-12-21T03:27:14.216Z,8.84
2018-12-21T03:28:14.202Z,8.87
2018-12-21T03:29:14.185Z,8.69
2018-12-21T03:30:14.230Z,8.71
2018-12-21T03:31:14.169Z,8.72
2018-12-21T03:32:14.155Z,8.75
2018-12-21T03:33:14.139Z,8.79
2018-12-21T03:34:14.146Z,8.79
2018-12-21T03:35:14.143Z,8.83
2018-12-21T03:36:14.109Z,8.84
2018-12-21T03:37:14.119Z,8.81
2018-12-21T03:38:14.087Z,8.79
2018-12-21T03:39:14.078Z,8.86
2018-12-21T03:40:14.088Z,8.91
2018-12-21T03:41:14.063Z,8.88
2018-12-21T03:42:14.045Z,8.78
2018-12-21T03:43:14.027Z,8.78
2018-12-21T03:44:14.022Z,8.72
2018-12-21T03:45:14.062Z,8.66
2018-12-21T03:46:13.994Z,8.76
2018-12-21T03:47:13.982Z,8.79
2018-12-21T03:48:13.970Z,8.79
2018-12-21T03:49:13.967Z,8.91
2018-12-21T03:50:14.084Z,8.78
2018-12-21T03:51:13.937Z,8.71
2018-12-21T03:52:13.972Z,8.72
2018-12-21T03:53:13.912Z,8.76
2018-12-21T03:54:13.902Z,8.83
2018-12-21T03:55:13.919Z,8.86
2018-12-21T03:56:13.883Z,8.78
2018-12-21T03:57:13.872Z,8.81
2018-12-21T03:58:13.859Z,8.94
2018-12-21T03:59:13.848Z,8.87
2018-12-21T04:00:13.889Z,8.90
2018-12-21T04:01:13.825Z,8.86
2018-12-21T04:02:13.815Z,8.87
2018-12-21T04:03:13.803Z,8.87
2018-12-21T04:04:13.792Z,8.93
2018-12-21T04:05:13.804Z,8.96
2018-12-21T04:06:13.772Z,8.99
2018-12-21T04:07:13.801Z,8.99
2018-12-21T04:08:13.751Z,8.86
2018-12-21T04:09:13.730Z,8.93
2018-12-21T04:10:13.750Z,8.99
2018-12-21T04:11:13.717Z,9.01
2018-12-21T04:12:13.702Z,9.02
2018-12-21T04:13:13.691Z,8.97
2018-12-21T04:14:13.729Z,9.01
2018-12-21T04:15:13.688Z,9.01
2018-12-21T04:16:13.663Z,9.13
2018-12-21T04:17:13.669Z,9.13
2018-12-21T04:18:13.633Z,9.04
2018-12-21T04:19:13.625Z,9.02
2018-12-21T04:20:13.666Z,9.10
2018-12-21T04:21:13.600Z,9.02
2018-12-21T04:22:13.592Z,9.13
2018-12-21T04:23:13.575Z,9.04
2018-12-21T04:24:13.565Z,9.09
2018-12-21T04:25:13.580Z,9.04
2018-12-21T04:26:13.542Z,9.02
2018-12-21T04:27:13.532Z,9.06
2018-12-21T04:28:13.555Z,9.04
2018-12-21T04:29:13.501Z,9.12
2018-12-21T04:30:13.521Z,9.04
2018-12-21T04:31:13.489Z,9.04
2018-12-21T04:32:13.484Z,9.04
2018-12-21T04:33:13.463Z,9.10
2018-12-21T04:34:13.456Z,9.06
2018-12-21T04:35:13.507Z,9.10
2018-12-21T04:36:13.432Z,9.06
2018-12-21T04:37:13.417Z,9.02
2018-12-21T04:38:13.407Z,9.13
2018-12-21T04:39:13.397Z,8.96
2018-12-21T04:40:13.407Z,9.12
2018-12-21T04:41:13.367Z,9.04
2018-12-21T04:42:13.366Z,9.12
2018-12-21T04:43:13.347Z,9.15
2018-12-21T04:44:13.383Z,9.12
2018-12-21T04:45:13.354Z,9.13
2018-12-21T04:46:13.316Z,9.13
2018-12-21T04:47:13.312Z,8.96
2018-12-21T04:48:13.292Z,8.96
2018-12-21T04:49:13.280Z,8.88
2018-12-21T04:50:13.301Z,8.71
2018-12-21T04:51:13.273Z,8.76
2018-12-21T04:52:13.255Z,8.75
2018-12-21T04:53:13.239Z,8.58
2018-12-21T04:54:13.226Z,8.58
2018-12-21T04:55:13.245Z,8.51
2018-12-21T04:56:13.209Z,8.40
2018-12-21T04:57:13.254Z,8.50
2018-12-21T04:58:13.184Z,8.33
2018-12-21T04:59:13.164Z,8.30
2018-12-21T05:00:13.189Z,8.29
2018-12-21T05:01:13.174Z,8.22
2018-12-21T05:02:13.137Z,8.33
2018-12-21T05:03:13.155Z,8.39
2018-12-21T05:04:19.835Z,8.28
2018-12-21T05:05:14.124Z,8.32
2018-12-21T05:06:13.119Z,8.36
2018-12-21T05:07:13.111Z,8.36
2018-12-21T05:08:13.070Z,8.39
2018-12-21T05:09:13.063Z,8.30
2018-12-21T05:10:13.098Z,8.42
2018-12-21T05:11:13.055Z,8.30
2018-12-21T05:12:13.017Z,8.37
2018-12-21T05:13:13.047Z,8.25
2018-12-21T05:14:13.001Z,8.35
2018-12-21T05:15:12.983Z,8.39
2018-12-21T05:16:13.001Z,8.39
2018-12-21T05:17:13.011Z,8.39
2018-12-21T05:18:12.960Z,8.37
2018-12-21T05:19:12.940Z,8.28
2018-12-21T05:20:12.932Z,8.20
2018-12-21T05:21:12.982Z,8.25
2018-12-21T05:22:12.907Z,8.17
2018-12-21T05:23:12.897Z,8.15
2018-12-21T05:24:12.882Z,8.18
2018-12-21T05:25:12.866Z,8.18
2018-12-21T05:26:12.916Z,8.10
2018-12-21T05:27:12.849Z,8.12
2018-12-21T05:28:12.836Z,8.03
2018-12-21T05:29:12.828Z,8.08
2018-12-21T05:30:12.812Z,8.14
2018-12-21T05:31:12.823Z,8.15
2018-12-21T05:32:12.792Z,8.18
2018-12-21T05:33:12.780Z,8.28
2018-12-21T05:34:12.824Z,8.28
2018-12-21T05:35:12.764Z,8.22
2018-12-21T05:36:12.775Z,8.15
2018-12-21T05:37:12.741Z,8.14
2018-12-21T05:38:12.725Z,8.18
2018-12-21T05:39:12.711Z,8.15
2018-12-21T05:40:12.701Z,8.17
2018-12-21T05:41:12.775Z,8.15
2018-12-21T05:42:12.701Z,8.17
2018-12-21T05:43:12.666Z,8.32
2018-12-21T05:44:12.658Z,8.28
2018-12-21T05:45:12.640Z,8.12
2018-12-21T05:46:12.626Z,8.14
2018-12-21T05:47:12.650Z,8.25
2018-12-21T05:48:12.641Z,8.17
2018-12-21T05:49:12.600Z,8.29
2018-12-21T05:50:12.586Z,8.32
2018-12-21T05:51:12.569Z,8.20
2018-12-21T05:52:12.582Z,8.25
2018-12-21T05:53:12.549Z,8.35
2018-12-21T05:54:12.541Z,8.36
2018-12-21T05:55:12.567Z,8.28
2018-12-21T05:56:12.531Z,8.40
2018-12-21T05:57:12.520Z,8.39
2018-12-21T05:58:12.493Z,8.42
2018-12-21T05:59:12.531Z,8.47
2018-12-21T06:00:12.471Z,8.47
2018-12-21T06:01:12.468Z,8.39
2018-12-21T06:02:12.466Z,8.45
2018-12-21T06:03:12.434Z,8.45
2018-12-21T06:04:12.473Z,8.44
2018-12-21T06:05:12.418Z,8.45
2018-12-21T06:06:12.410Z,8.48
2018-12-21T06:07:12.426Z,8.50
2018-12-21T06:08:12.383Z,8.36
2018-12-21T06:09:12.363Z,8.51
2018-12-21T06:10:12.396Z,8.50
2018-12-21T06:11:12.339Z,8.57
2018-12-21T06:12:12.375Z,8.63
2018-12-21T06:13:12.318Z,8.68
2018-12-21T06:14:12.308Z,8.65
2018-12-21T06:15:12.297Z,8.66
2018-12-21T06:16:12.331Z,8.63
2018-12-21T06:17:12.322Z,8.62
2018-12-21T06:18:12.254Z,8.54
2018-12-21T06:19:12.472Z,8.60
2018-12-21T06:20:12.273Z,8.68
2018-12-21T06:21:12.243Z,8.57
2018-12-21T06:22:12.240Z,8.53
2018-12-21T06:23:12.202Z,8.55
2018-12-21T06:24:12.195Z,8.45
2018-12-21T06:25:12.241Z,8.50
2018-12-21T06:26:12.177Z,8.53
2018-12-21T06:27:12.163Z,8.65
2018-12-21T06:28:12.175Z,8.58
2018-12-21T06:29:12.172Z,8.68
2018-12-21T06:30:12.118Z,8.63
2018-12-21T06:31:12.116Z,8.63
2018-12-21T06:32:12.093Z,8.73
2018-12-21T06:33:12.124Z,8.83
2018-12-21T06:34:12.081Z,8.86
2018-12-21T06:35:12.116Z,8.84
2018-12-21T06:36:12.056Z,8.88
2018-12-21T06:37:12.048Z,8.83
2018-12-21T06:38:12.074Z,8.86
2018-12-21T06:39:12.014Z,8.99
2018-12-21T06:40:12.010Z,9.13
2018-12-21T06:41:12.024Z,9.06
2018-12-21T06:42:11.996Z,8.99
2018-12-21T06:43:12.010Z,8.91
2018-12-21T06:44:11.966Z,8.96
2018-12-21T06:45:11.961Z,8.90
2018-12-21T06:46:14.233Z,8.91
2018-12-21T06:47:11.927Z,8.91
2018-12-21T06:48:11.945Z,9.01
2018-12-21T06:49:11.911Z,8.99
2018-12-21T06:50:11.941Z,9.02
2018-12-21T06:51:11.888Z,8.91
2018-12-21T06:52:11.880Z,8.97
2018-12-21T06:53:17.955Z,9.05
2018-12-21T06:54:12.860Z,8.97
2018-12-21T06:55:11.843Z,9.01
2018-12-21T06:56:11.828Z,8.91
2018-12-21T06:57:11.815Z,8.87
2018-12-21T06:58:11.836Z,8.87
2018-12-21T06:59:11.804Z,8.91
2018-12-21T07:00:11.778Z,8.90
2018-12-21T07:01:11.774Z,8.83
2018-12-21T07:02:11.801Z,8.79
2018-12-21T07:03:17.083Z,8.81
2018-12-21T07:04:12.732Z,8.87
2018-12-21T07:05:11.727Z,8.86
2018-12-21T07:06:11.769Z,8.94
2018-12-21T07:07:11.714Z,8.76
2018-12-21T07:08:11.719Z,8.88
2018-12-21T07:09:11.688Z,8.83
2018-12-21T07:10:11.673Z,8.83
2018-12-21T07:11:11.659Z,8.78
2018-12-21T07:12:11.688Z,8.81
2018-12-21T07:13:11.656Z,8.71
2018-12-21T07:14:11.623Z,8.79
2018-12-21T07:15:11.618Z,8.83
2018-12-21T07:16:11.606Z,8.76
2018-12-21T07:17:11.617Z,8.83
2018-12-21T07:18:11.615Z,8.68
2018-12-21T07:19:11.580Z,8.69
2018-12-21T07:20:11.560Z,8.72
2018-12-21T07:21:11.547Z,8.73
2018-12-21T07:22:11.538Z,8.79
2018-12-21T07:23:11.553Z,8.69
2018-12-21T07:24:11.550Z,8.84
2018-12-21T07:25:11.507Z,8.68
2018-12-21T07:26:11.498Z,8.76
2018-12-21T07:27:11.480Z,8.79
2018-12-21T07:28:11.494Z,8.83
2018-12-21T07:29:11.454Z,8.87
2018-12-21T07:30:11.453Z,8.86
2018-12-21T07:31:11.437Z,8.84
2018-12-21T07:32:11.446Z,8.71
2018-12-21T07:33:11.412Z,8.79
2018-12-21T07:34:11.452Z,8.68
2018-12-21T07:35:11.393Z,8.66
2018-12-21T07:36:11.372Z,8.68
2018-12-21T07:37:11.376Z,8.60
2018-12-21T07:38:11.353Z,8.63
2018-12-21T07:39:11.369Z,8.63
2018-12-21T07:40:11.336Z,8.66
2018-12-21T07:41:11.323Z,8.72
2018-12-21T07:42:11.353Z,8.65
2018-12-21T07:43:11.298Z,8.60
2018-12-21T07:44:11.319Z,8.57
2018-12-21T07:45:11.281Z,8.66
2018-12-21T07:46:11.262Z,8.68
2018-12-21T07:47:11.248Z,8.65
2018-12-21T07:48:11.250Z,8.63
2018-12-21T07:49:11.255Z,8.62
2018-12-21T07:50:11.222Z,8.69
2018-12-21T07:51:11.211Z,8.71
2018-12-21T07:52:11.243Z,8.78
2018-12-21T07:53:11.189Z,8.83
2018-12-21T07:54:11.205Z,8.93
2018-12-21T07:55:11.160Z,8.78
2018-12-21T07:56:11.153Z,8.79
2018-12-21T07:57:11.169Z,8.79
2018-12-21T07:58:11.130Z,8.90
2018-12-21T07:59:11.141Z,8.81
2018-12-21T08:00:11.110Z,8.90
2018-12-21T08:01:11.095Z,8.87
2018-12-21T08:02:11.119Z,8.84
2018-12-21T08:03:11.069Z,8.78
2018-12-21T08:04:11.083Z,8.76
2018-12-21T08:05:11.053Z,8.81
2018-12-21T08:06:11.039Z,8.81
2018-12-21T08:07:11.027Z,8.84
2018-12-21T08:08:11.013Z,8.88
2018-12-21T08:09:11.084Z,8.93
2018-12-21T08:10:10.996Z,8.86
2018-12-21T08:11:10.985Z,8.87
2018-12-21T08:12:10.970Z,8.88
2018-12-21T08:13:10.964Z,8.91
2018-12-21T08:14:10.967Z,9.10
2018-12-21T08:15:10.940Z,9.02
2018-12-21T08:16:10.967Z,9.01
2018-12-21T08:17:10.921Z,9.01
2018-12-21T08:18:10.900Z,8.94
2018-12-21T08:19:10.917Z,8.94
2018-12-21T08:20:10.883Z,8.86
2018-12-21T08:21:10.870Z,8.86
2018-12-21T08:22:10.892Z,8.88
2018-12-21T08:23:10.845Z,8.88
2018-12-21T08:24:10.860Z,8.88
2018-12-21T08:25:10.833Z,8.94
2018-12-21T08:26:10.813Z,8.87
2018-12-21T08:27:10.803Z,8.90
2018-12-21T08:28:11.663Z,9.05
2018-12-21T08:29:11.070Z,8.94
2018-12-21T08:30:10.803Z,9.05
2018-12-21T08:31:11.319Z,9.10
2018-12-21T08:32:10.740Z,9.13
2018-12-21T08:33:10.733Z,9.04
2018-12-21T08:34:10.725Z,9.04
2018-12-21T08:35:10.734Z,9.02
2018-12-21T08:36:10.702Z,9.18
2018-12-21T08:37:10.686Z,9.18
2018-12-21T08:38:10.715Z,9.15
2018-12-21T08:39:10.667Z,9.18
2018-12-21T08:40:10.680Z,9.15
2018-12-21T08:41:10.648Z,9.18
2018-12-21T08:42:10.639Z,9.20
2018-12-21T08:43:10.652Z,9.12
2018-12-21T08:44:10.606Z,9.13
2018-12-21T08:45:10.668Z,9.15
2018-12-21T08:46:10.590Z,9.18
2018-12-21T08:47:10.577Z,9.10
2018-12-21T08:48:10.562Z,9.05
2018-12-21T08:49:10.556Z,9.24
2018-12-21T08:50:10.568Z,9.20
2018-12-21T08:51:10.536Z,9.21
2018-12-21T08:52:10.556Z,9.27
2018-12-21T08:53:10.518Z,9.30
2018-12-21T08:54:10.498Z,9.24
2018-12-21T08:55:11.894Z,9.23
2018-12-21T08:56:10.480Z,9.27
2018-12-21T08:57:10.475Z,9.25
2018-12-21T08:58:10.459Z,9.35
2018-12-21T08:59:10.483Z,9.40
2018-12-21T09:00:10.459Z,9.35
2018-12-21T09:01:10.418Z,9.39
2018-12-21T09:02:10.406Z,9.40
2018-12-21T09:03:10.398Z,9.39
2018-12-21T09:04:10.395Z,9.38
2018-12-21T09:05:10.429Z,9.40
2018-12-21T09:06:18.232Z,9.48
2018-12-21T09:07:11.351Z,9.60
2018-12-21T09:08:10.343Z,9.53
2018-12-21T09:09:10.328Z,9.53
2018-12-21T09:10:10.346Z,9.63
2018-12-21T09:11:10.319Z,9.64
2018-12-21T09:12:10.301Z,9.60
2018-12-21T09:13:10.285Z,9.58
2018-12-21T09:14:10.311Z,9.71
2018-12-21T09:15:10.292Z,9.76
2018-12-21T09:16:10.273Z,9.85
2018-12-21T09:17:10.241Z,9.82
2018-12-21T09:18:10.241Z,9.82
2018-12-21T09:19:10.214Z,9.79
2018-12-21T09:20:10.233Z,9.85
2018-12-21T09:21:10.243Z,9.83
2018-12-21T09:22:10.182Z,9.93
2018-12-21T09:23:10.174Z,9.82
2018-12-21T09:24:10.203Z,9.93
2018-12-21T09:25:10.170Z,9.89
2018-12-21T09:26:10.154Z,10.03
2018-12-21T09:27:10.128Z,10.04
2018-12-21T09:28:10.127Z,10.03
2018-12-21T09:29:10.115Z,10.00
2018-12-21T09:30:10.121Z,10.21
2018-12-21T09:31:10.085Z,10.07
2018-12-21T09:32:10.125Z,10.10
2018-12-21T09:33:10.104Z,10.21
2018-12-21T09:34:10.044Z,10.18
2018-12-21T09:35:10.054Z,10.18
2018-12-21T09:36:10.049Z,10.25
2018-12-21T09:37:10.010Z,10.37
2018-12-21T09:38:10.007Z,10.43
2018-12-21T09:39:10.013Z,10.44
2018-12-21T09:40:09.974Z,10.62
2018-12-21T09:41:09.985Z,10.77
2018-12-21T09:42:09.950Z,10.86
2018-12-21T09:43:09.941Z,10.88
2018-12-21T09:44:09.947Z,10.92
2018-12-21T09:45:09.928Z,10.89
2018-12-21T09:46:09.945Z,10.95
2018-12-21T09:47:09.913Z,10.98
2018-12-21T09:48:09.898Z,11.09
2018-12-21T09:49:09.888Z,11.13
2018-12-21T09:50:09.886Z,11.20
2018-12-21T09:51:09.878Z,11.17
2018-12-21T09:52:09.906Z,11.28
2018-12-21T09:53:09.830Z,11.29
2018-12-21T09:54:10.352Z,11.28
2018-12-21T09:55:09.808Z,11.32
2018-12-21T09:56:09.831Z,11.43
2018-12-21T09:57:09.801Z,11.43
2018-12-21T09:58:09.781Z,11.53
2018-12-21T09:59:09.805Z,11.54
2018-12-21T10:00:09.767Z,11.53
2018-12-21T10:01:09.775Z,11.68
2018-12-21T10:02:09.754Z,11.57
2018-12-21T10:03:09.715Z,11.77
2018-12-21T10:04:09.723Z,11.77
2018-12-21T10:05:09.708Z,11.83
2018-12-21T10:06:09.721Z,11.87
2018-12-21T10:07:09.682Z,11.87
2018-12-21T10:08:09.709Z,11.97
2018-12-21T10:09:09.659Z,12.05
2018-12-21T10:10:09.645Z,11.97
2018-12-21T10:11:09.784Z,12.05
2018-12-21T10:12:09.678Z,11.96
2018-12-21T10:13:09.605Z,12.04
2018-12-21T10:14:09.599Z,12.06
2018-12-21T10:15:09.636Z,12.05
2018-12-21T10:16:09.609Z,12.05
2018-12-21T10:17:09.570Z,12.05
2018-12-21T10:18:09.563Z,12.11
2018-12-21T10:19:09.544Z,12.06
2018-12-21T10:20:09.530Z,12.13
2018-12-21T10:21:09.579Z,12.21
2018-12-21T10:22:09.511Z,12.15
2018-12-21T10:23:09.502Z,12.24
2018-12-21T10:24:09.501Z,12.24
2018-12-21T10:25:09.469Z,12.21
2018-12-21T10:26:09.490Z,12.20
2018-12-21T10:27:09.455Z,12.33
2018-12-21T10:28:09.478Z,12.33
2018-12-21T10:29:09.423Z,12.29
2018-12-21T10:30:09.413Z,12.44
2018-12-21T10:31:09.438Z,12.45
2018-12-21T10:32:09.388Z,12.45
2018-12-21T10:33:09.376Z,12.56
2018-12-21T10:34:09.393Z,12.56
2018-12-21T10:35:09.398Z,12.54
2018-12-21T10:36:09.352Z,12.57
2018-12-21T10:37:09.359Z,12.54
2018-12-21T10:38:09.326Z,12.59
2018-12-21T10:39:09.320Z,12.64
2018-12-21T10:40:09.299Z,12.57
2018-12-21T10:41:09.293Z,12.64
2018-12-21T10:42:09.331Z,12.67
2018-12-21T10:43:09.273Z,12.64
2018-12-21T10:44:09.267Z,12.77
2018-12-21T10:45:09.249Z,12.70
2018-12-21T10:46:30.259Z,12.67
2018-12-21T10:48:45.745Z,12.64
2018-12-21T10:49:45.655Z,12.64
2018-12-21T10:50:45.550Z,12.75
2018-12-21T10:51:45.517Z,12.69
2018-12-21T10:52:45.516Z,12.77
2018-12-21T10:53:46.662Z,12.77
2018-12-21T10:54:45.458Z,12.77
2018-12-21T10:55:45.458Z,12.77
2018-12-21T10:56:45.464Z,12.81
2018-12-21T10:57:45.477Z,12.82
2018-12-21T10:58:45.413Z,12.92
2018-12-21T10:59:45.403Z,12.89
2018-12-21T11:00:45.403Z,12.92
2018-12-21T11:01:45.415Z,12.89
2018-12-21T11:02:45.373Z,12.97
2018-12-21T11:03:45.405Z,13.00
2018-12-21T11:04:45.349Z,12.99
2018-12-21T11:05:45.340Z,12.92
2018-12-21T11:06:45.348Z,13.03
2018-12-21T11:07:45.328Z,13.06
2018-12-21T11:08:45.306Z,13.11
2018-12-21T11:09:45.296Z,13.12
2018-12-21T11:10:45.940Z,13.06
2018-12-21T11:11:45.299Z,13.03
2018-12-21T11:12:45.264Z,13.04
2018-12-21T11:13:45.275Z,13.12
2018-12-21T11:14:45.248Z,13.11
2018-12-21T11:15:45.226Z,13.18
2018-12-21T11:16:45.226Z,13.20
2018-12-21T11:17:45.234Z,13.17
2018-12-21T11:18:45.196Z,13.17
2018-12-21T11:19:45.229Z,13.17
2018-12-21T11:20:45.169Z,13.11
2018-12-21T11:21:45.159Z,13.24
2018-12-21T11:22:45.178Z,13.29
2018-12-21T11:23:45.144Z,13.33
2018-12-21T11:24:45.129Z,13.33
2018-12-21T11:25:45.115Z,13.41
2018-12-21T11:26:45.138Z,13.41
2018-12-21T11:27:45.115Z,13.43
2018-12-21T11:28:45.082Z,13.44
2018-12-21T11:29:45.074Z,13.54
2018-12-21T11:30:45.068Z,13.46
2018-12-21T11:31:45.072Z,13.52
2018-12-21T11:32:45.315Z,13.54
2018-12-21T11:33:45.023Z,13.49
2018-12-21T11:34:45.020Z,13.58
2018-12-21T11:35:45.755Z,13.54
2018-12-21T11:36:44.997Z,13.55
2018-12-21T11:37:45.233Z,13.59
2018-12-21T11:38:45.184Z,13.58
2018-12-21T11:39:44.955Z,13.54
2018-12-21T11:40:44.947Z,13.56
2018-12-21T11:41:44.965Z,13.56
2018-12-21T11:42:44.962Z,13.65
2018-12-21T11:43:44.918Z,13.62
2018-12-21T11:44:44.904Z,13.65
2018-12-21T11:45:44.910Z,13.71
2018-12-21T11:46:44.883Z,13.67
2018-12-21T11:47:44.899Z,13.73
2018-12-21T11:48:44.858Z,13.69
2018-12-21T11:49:44.851Z,13.79
2018-12-21T11:50:44.887Z,13.71
2018-12-21T11:51:44.832Z,13.84
2018-12-21T11:52:44.854Z,13.80
2018-12-21T11:53:44.810Z,13.80
2018-12-21T11:54:44.791Z,13.76
2018-12-21T11:55:44.794Z,13.83
2018-12-21T11:56:44.772Z,13.83
2018-12-21T11:57:44.794Z,13.79
2018-12-21T11:58:44.758Z,13.83
2018-12-21T11:59:45.252Z,13.88
2018-12-21T12:00:44.779Z,13.87
2018-12-21T12:01:44.720Z,13.84
2018-12-21T12:02:44.736Z,13.91
2018-12-21T12:03:44.700Z,13.95
2018-12-21T12:04:44.692Z,13.95
2018-12-21T12:05:44.673Z,13.99
2018-12-21T12:06:44.707Z,13.95
2018-12-21T12:07:44.673Z,13.91
2018-12-21T12:08:44.647Z,13.91
2018-12-21T12:09:44.634Z,13.91
2018-12-21T12:10:44.624Z,13.99
2018-12-21T12:11:44.611Z,14.12
2018-12-21T12:12:44.704Z,13.92
2018-12-21T12:13:44.597Z,14.06
2018-12-21T12:14:44.600Z,13.99
2018-12-21T12:15:44.577Z,13.99
2018-12-21T12:16:44.551Z,13.94
2018-12-21T12:17:44.547Z,13.91
2018-12-21T12:18:44.601Z,14.04
2018-12-21T12:19:44.530Z,13.99
2018-12-21T12:20:44.511Z,14.06
2018-12-21T12:21:44.502Z,14.10
2018-12-21T12:22:44.518Z,14.19
2018-12-21T12:23:44.502Z,14.19
2018-12-21T12:24:52.547Z,14.17
2018-12-21T12:25:45.454Z,14.25
2018-12-21T12:26:44.755Z,14.27
2018-12-21T12:27:44.437Z,14.27
2018-12-21T12:28:44.494Z,14.29
2018-12-21T12:29:44.415Z,14.24
2018-12-21T12:30:44.418Z,14.31
2018-12-21T12:31:44.401Z,14.34
2018-12-21T12:32:44.384Z,14.42
2018-12-21T12:33:44.390Z,14.49
2018-12-21T12:34:44.358Z,14.53
2018-12-21T12:35:44.351Z,14.44
2018-12-21T12:36:44.347Z,14.52
2018-12-21T12:37:44.326Z,14.56
2018-12-21T12:38:44.390Z,14.53
2018-12-21T12:39:44.307Z,14.68
2018-12-21T12:40:44.292Z,14.67
2018-12-21T12:41:44.290Z,14.72
2018-12-21T12:42:44.267Z,14.72
2018-12-21T12:43:44.283Z,14.78
2018-12-21T12:44:44.246Z,14.83
2018-12-21T12:45:44.281Z,14.87
2018-12-21T12:46:44.230Z,14.86
2018-12-21T12:47:44.222Z,15.03
2018-12-21T12:48:44.233Z,15.11
2018-12-21T12:49:44.239Z,15.09
2018-12-21T12:50:44.181Z,15.11
2018-12-21T12:51:44.169Z,15.23
2018-12-21T12:52:44.161Z,15.17
2018-12-21T12:53:44.174Z,15.20
2018-12-21T12:54:44.141Z,15.05
2018-12-21T12:55:44.125Z,15.12
2018-12-21T12:56:44.163Z,15.19
2018-12-21T12:57:44.098Z,15.26
2018-12-21T12:58:44.115Z,15.17
2018-12-21T12:59:44.115Z,15.17
2018-12-21T13:00:44.067Z,15.15
2018-12-21T13:01:44.178Z,15.12
2018-12-21T13:02:44.065Z,15.02
2018-12-21T13:03:44.057Z,15.08
2018-12-21T13:04:44.021Z,15.13
2018-12-21T13:05:44.018Z,15.08
2018-12-21T13:06:44.063Z,15.02
2018-12-21T13:07:43.996Z,15.13
2018-12-21T13:08:44.010Z,15.11
2018-12-21T13:09:44.054Z,15.05
2018-12-21T13:10:43.978Z,15.03
2018-12-21T13:11:43.945Z,15.03